sensor_id;sensor_type;location;lat;lon;timestamp;pressure;altitude;pressure_sealevel;temperature
7389;BMP180;3735;50.136;11.062;2023-07-02T00:01:50;97328.00;;;17.50
7389;BMP180;3735;50.136;11.062;2023-07-02T00:04:16;97324.00;;;17.40
7389;BMP180;3735;50.136;11.062;2023-07-02T00:06:48;97312.00;;;17.40
7389;BMP180;3735;50.136;11.062;2023-07-02T00:09:15;97323.00;;;17.40
7389;BMP180;3735;50.136;11.062;2023-07-02T00:11:44;97327.00;;;17.40
7389;BMP180;3735;50.136;11.062;2023-07-02T00:14:12;97323.00;;;17.40
7389;BMP180;3735;50.136;11.062;2023-07-02T00:16:44;97327.00;;;17.50
7389;BMP180;3735;50.136;11.062;2023-07-02T00:19:13;97333.00;;;17.50
7389;BMP180;3735;50.136;11.062;2023-07-02T00:21:39;97332.00;;;17.50
7389;BMP180;3735;50.136;11.062;2023-07-02T00:24:07;97334.00;;;17.50
7389;BMP180;3735;50.136;11.062;2023-07-02T00:26:35;97321.00;;;17.40
7389;BMP180;3735;50.136;11.062;2023-07-02T00:29:02;97333.00;;;17.40
7389;BMP180;3735;50.136;11.062;2023-07-02T00:31:29;97329.00;;;17.40
7389;BMP180;3735;50.136;11.062;2023-07-02T00:33:55;97325.00;;;17.40
7389;BMP180;3735;50.136;11.062;2023-07-02T00:36:21;97318.00;;;17.30
7389;BMP180;3735;50.136;11.062;2023-07-02T00:38:48;97324.00;;;17.30
7389;BMP180;3735;50.136;11.062;2023-07-02T00:41:15;97326.00;;;17.30
7389;BMP180;3735;50.136;11.062;2023-07-02T00:43:41;97320.00;;;17.30
7389;BMP180;3735;50.136;11.062;2023-07-02T00:46:16;97334.00;;;17.30
7389;BMP180;3735;50.136;11.062;2023-07-02T00:48:53;97330.00;;;17.30
7389;BMP180;3735;50.136;11.062;2023-07-02T00:51:24;97326.00;;;17.30
7389;BMP180;3735;50.136;11.062;2023-07-02T00:53:54;97335.00;;;17.30
7389;BMP180;3735;50.136;11.062;2023-07-02T00:56:25;97328.00;;;17.30
7389;BMP180;3735;50.136;11.062;2023-07-02T00:58:54;97317.00;;;17.30
7389;BMP180;3735;50.136;11.062;2023-07-02T01:01:22;97332.00;;;17.30
7389;BMP180;3735;50.136;11.062;2023-07-02T01:04:01;97336.00;;;17.30
7389;BMP180;3735;50.136;11.062;2023-07-02T01:06:33;97340.00;;;17.30
7389;BMP180;3735;50.136;11.062;2023-07-02T01:09:07;97329.00;;;17.30
7389;BMP180;3735;50.136;11.062;2023-07-02T01:11:43;97327.00;;;17.20
7389;BMP180;3735;50.136;11.062;2023-07-02T01:14:39;97327.00;;;17.20
7389;BMP180;3735;50.136;11.062;2023-07-02T01:17:06;97324.00;;;17.20
7389;BMP180;3735;50.136;11.062;2023-07-02T01:22:19;97331.00;;;17.10
7389;BMP180;3735;50.136;11.062;2023-07-02T01:24:47;97334.00;;;17.20
7389;BMP180;3735;50.136;11.062;2023-07-02T01:27:15;97324.00;;;17.10
7389;BMP180;3735;50.136;11.062;2023-07-02T01:29:41;97321.00;;;17.10
7389;BMP180;3735;50.136;11.062;2023-07-02T01:32:10;97330.00;;;17.10
7389;BMP180;3735;50.136;11.062;2023-07-02T01:34:36;97335.00;;;17.00
7389;BMP180;3735;50.136;11.062;2023-07-02T01:37:04;97335.00;;;17.00
7389;BMP180;3735;50.136;11.062;2023-07-02T01:39:30;97337.00;;;17.00
7389;BMP180;3735;50.136;11.062;2023-07-02T01:42:08;97347.00;;;17.00
7389;BMP180;3735;50.136;11.062;2023-07-02T01:44:34;97347.00;;;17.00
7389;BMP180;3735;50.136;11.062;2023-07-02T01:47:00;97343.00;;;16.90
7389;BMP180;3735;50.136;11.062;2023-07-02T01:49:25;97346.00;;;16.90
7389;BMP180;3735;50.136;11.062;2023-07-02T01:51:53;97339.00;;;16.90
7389;BMP180;3735;50.136;11.062;2023-07-02T01:54:20;97353.00;;;16.90
7389;BMP180;3735;50.136;11.062;2023-07-02T01:56:46;97345.00;;;17.00
7389;BMP180;3735;50.136;11.062;2023-07-02T01:59:12;97354.00;;;17.00
7389;BMP180;3735;50.136;11.062;2023-07-02T02:01:38;97342.00;;;16.90
7389;BMP180;3735;50.136;11.062;2023-07-02T02:04:12;97347.00;;;16.90
7389;BMP180;3735;50.136;11.062;2023-07-02T02:06:39;97354.00;;;16.90
7389;BMP180;3735;50.136;11.062;2023-07-02T02:09:07;97357.00;;;16.90
7389;BMP180;3735;50.136;11.062;2023-07-02T02:11:36;97355.00;;;16.90
7389;BMP180;3735;50.136;11.062;2023-07-02T02:14:02;97357.00;;;16.80
7389;BMP180;3735;50.136;11.062;2023-07-02T02:16:28;97358.00;;;16.90
7389;BMP180;3735;50.136;11.062;2023-07-02T02:18:54;97359.00;;;16.90
7389;BMP180;3735;50.136;11.062;2023-07-02T02:21:21;97354.00;;;16.90
7389;BMP180;3735;50.136;11.062;2023-07-02T02:23:48;97359.00;;;17.00
7389;BMP180;3735;50.136;11.062;2023-07-02T02:26:14;97363.00;;;17.00
7389;BMP180;3735;50.136;11.062;2023-07-02T02:28:42;97354.00;;;17.00
7389;BMP180;3735;50.136;11.062;2023-07-02T02:31:08;97367.00;;;17.10
7389;BMP180;3735;50.136;11.062;2023-07-02T02:33:34;97369.00;;;17.10
7389;BMP180;3735;50.136;11.062;2023-07-02T02:36:04;97371.00;;;17.00
7389;BMP180;3735;50.136;11.062;2023-07-02T02:38:30;97365.00;;;17.00
7389;BMP180;3735;50.136;11.062;2023-07-02T02:40:55;97367.00;;;17.00
7389;BMP180;3735;50.136;11.062;2023-07-02T02:43:21;97368.00;;;17.00
7389;BMP180;3735;50.136;11.062;2023-07-02T02:45:48;97371.00;;;16.90
7389;BMP180;3735;50.136;11.062;2023-07-02T02:48:14;97362.00;;;16.90
7389;BMP180;3735;50.136;11.062;2023-07-02T02:50:39;97362.00;;;16.90
7389;BMP180;3735;50.136;11.062;2023-07-02T02:53:07;97358.00;;;16.80
7389;BMP180;3735;50.136;11.062;2023-07-02T02:55:33;97370.00;;;16.80
7389;BMP180;3735;50.136;11.062;2023-07-02T02:57:59;97369.00;;;16.70
7389;BMP180;3735;50.136;11.062;2023-07-02T03:00:25;97369.00;;;16.60
7389;BMP180;3735;50.136;11.062;2023-07-02T03:02:51;97378.00;;;16.60
7389;BMP180;3735;50.136;11.062;2023-07-02T03:05:16;97372.00;;;16.60
7389;BMP180;3735;50.136;11.062;2023-07-02T03:07:42;97372.00;;;16.50
7389;BMP180;3735;50.136;11.062;2023-07-02T03:10:08;97370.00;;;16.50
7389;BMP180;3735;50.136;11.062;2023-07-02T03:12:34;97367.00;;;16.50
7389;BMP180;3735;50.136;11.062;2023-07-02T03:15:00;97370.00;;;16.40
7389;BMP180;3735;50.136;11.062;2023-07-02T03:17:26;97376.00;;;16.40
7389;BMP180;3735;50.136;11.062;2023-07-02T03:19:52;97388.00;;;16.40
7389;BMP180;3735;50.136;11.062;2023-07-02T03:22:17;97391.00;;;16.40
7389;BMP180;3735;50.136;11.062;2023-07-02T03:24:43;97388.00;;;16.30
7389;BMP180;3735;50.136;11.062;2023-07-02T03:27:09;97390.00;;;16.30
7389;BMP180;3735;50.136;11.062;2023-07-02T03:29:35;97388.00;;;16.30
7389;BMP180;3735;50.136;11.062;2023-07-02T03:32:04;97390.00;;;16.30
7389;BMP180;3735;50.136;11.062;2023-07-02T03:34:30;97384.00;;;16.20
7389;BMP180;3735;50.136;11.062;2023-07-02T03:36:56;97388.00;;;16.20
7389;BMP180;3735;50.136;11.062;2023-07-02T03:39:22;97383.00;;;16.20
7389;BMP180;3735;50.136;11.062;2023-07-02T03:41:48;97393.00;;;16.30
7389;BMP180;3735;50.136;11.062;2023-07-02T03:44:13;97394.00;;;16.30
7389;BMP180;3735;50.136;11.062;2023-07-02T03:46:39;97394.00;;;16.30
7389;BMP180;3735;50.136;11.062;2023-07-02T03:49:05;97393.00;;;16.30
7389;BMP180;3735;50.136;11.062;2023-07-02T03:51:31;97402.00;;;16.30
7389;BMP180;3735;50.136;11.062;2023-07-02T03:54:00;97399.00;;;16.30
7389;BMP180;3735;50.136;11.062;2023-07-02T03:56:26;97406.00;;;16.20
7389;BMP180;3735;50.136;11.062;2023-07-02T03:58:53;97407.00;;;16.20
7389;BMP180;3735;50.136;11.062;2023-07-02T04:01:18;97410.00;;;16.20
7389;BMP180;3735;50.136;11.062;2023-07-02T04:03:52;97403.00;;;16.10
7389;BMP180;3735;50.136;11.062;2023-07-02T04:06:19;97399.00;;;16.00
7389;BMP180;3735;50.136;11.062;2023-07-02T04:08:45;97413.00;;;15.90
7389;BMP180;3735;50.136;11.062;2023-07-02T04:11:11;97423.00;;;15.80
7389;BMP180;3735;50.136;11.062;2023-07-02T04:13:38;97423.00;;;15.80
7389;BMP180;3735;50.136;11.062;2023-07-02T04:16:04;97428.00;;;15.70
7389;BMP180;3735;50.136;11.062;2023-07-02T04:18:30;97435.00;;;15.70
7389;BMP180;3735;50.136;11.062;2023-07-02T04:20:57;97439.00;;;15.70
7389;BMP180;3735;50.136;11.062;2023-07-02T04:23:24;97441.00;;;15.80
7389;BMP180;3735;50.136;11.062;2023-07-02T04:25:50;97435.00;;;15.80
7389;BMP180;3735;50.136;11.062;2023-07-02T04:28:16;97443.00;;;15.80
7389;BMP180;3735;50.136;11.062;2023-07-02T04:30:42;97443.00;;;15.80
7389;BMP180;3735;50.136;11.062;2023-07-02T04:33:09;97435.00;;;15.80
7389;BMP180;3735;50.136;11.062;2023-07-02T04:35:34;97444.00;;;16.00
7389;BMP180;3735;50.136;11.062;2023-07-02T04:38:01;97445.00;;;16.30
7389;BMP180;3735;50.136;11.062;2023-07-02T04:40:27;97443.00;;;16.60
7389;BMP180;3735;50.136;11.062;2023-07-02T04:42:53;97437.00;;;17.40
7389;BMP180;3735;50.136;11.062;2023-07-02T04:45:24;97444.00;;;18.10
7389;BMP180;3735;50.136;11.062;2023-07-02T04:47:50;97450.00;;;18.00
7389;BMP180;3735;50.136;11.062;2023-07-02T04:50:18;97442.00;;;18.00
7389;BMP180;3735;50.136;11.062;2023-07-02T04:52:44;97443.00;;;17.70
7389;BMP180;3735;50.136;11.062;2023-07-02T04:55:10;97459.00;;;17.50
7389;BMP180;3735;50.136;11.062;2023-07-02T04:57:37;97459.00;;;17.20
7389;BMP180;3735;50.136;11.062;2023-07-02T05:00:04;97465.00;;;17.10
7389;BMP180;3735;50.136;11.062;2023-07-02T05:02:31;97465.00;;;17.10
7389;BMP180;3735;50.136;11.062;2023-07-02T05:04:57;97464.00;;;17.00
7389;BMP180;3735;50.136;11.062;2023-07-02T05:07:23;97467.00;;;17.00
7389;BMP180;3735;50.136;11.062;2023-07-02T05:09:49;97473.00;;;16.90
7389;BMP180;3735;50.136;11.062;2023-07-02T05:12:17;97476.00;;;17.00
7389;BMP180;3735;50.136;11.062;2023-07-02T05:14:43;97460.00;;;17.10
7389;BMP180;3735;50.136;11.062;2023-07-02T05:17:09;97468.00;;;17.10
7389;BMP180;3735;50.136;11.062;2023-07-02T05:19:35;97458.00;;;17.20
7389;BMP180;3735;50.136;11.062;2023-07-02T05:22:00;97467.00;;;17.00
7389;BMP180;3735;50.136;11.062;2023-07-02T05:24:26;97472.00;;;17.00
7389;BMP180;3735;50.136;11.062;2023-07-02T05:26:52;97485.00;;;16.90
7389;BMP180;3735;50.136;11.062;2023-07-02T05:29:18;97483.00;;;17.10
7389;BMP180;3735;50.136;11.062;2023-07-02T05:31:44;97472.00;;;17.20
7389;BMP180;3735;50.136;11.062;2023-07-02T05:34:10;97485.00;;;17.60
7389;BMP180;3735;50.136;11.062;2023-07-02T05:36:36;97487.00;;;17.40
7389;BMP180;3735;50.136;11.062;2023-07-02T05:39:01;97484.00;;;17.50
7389;BMP180;3735;50.136;11.062;2023-07-02T05:41:27;97477.00;;;17.80
7389;BMP180;3735;50.136;11.062;2023-07-02T05:43:57;97484.00;;;17.60
7389;BMP180;3735;50.136;11.062;2023-07-02T05:46:24;97471.00;;;17.90
7389;BMP180;3735;50.136;11.062;2023-07-02T05:48:49;97481.00;;;18.10
7389;BMP180;3735;50.136;11.062;2023-07-02T05:51:24;97489.00;;;17.80
7389;BMP180;3735;50.136;11.062;2023-07-02T05:53:50;97475.00;;;17.80
7389;BMP180;3735;50.136;11.062;2023-07-02T05:56:17;97493.00;;;17.60
7389;BMP180;3735;50.136;11.062;2023-07-02T05:58:43;97504.00;;;17.60
7389;BMP180;3735;50.136;11.062;2023-07-02T06:01:09;97505.00;;;17.60
7389;BMP180;3735;50.136;11.062;2023-07-02T06:03:34;97510.00;;;17.70
7389;BMP180;3735;50.136;11.062;2023-07-02T06:06:00;97514.00;;;17.90
7389;BMP180;3735;50.136;11.062;2023-07-02T06:08:26;97515.00;;;18.80
7389;BMP180;3735;50.136;11.062;2023-07-02T06:10:52;97518.00;;;19.10
7389;BMP180;3735;50.136;11.062;2023-07-02T06:13:18;97521.00;;;19.20
7389;BMP180;3735;50.136;11.062;2023-07-02T06:15:44;97509.00;;;19.30
7389;BMP180;3735;50.136;11.062;2023-07-02T06:18:12;97524.00;;;18.70
7389;BMP180;3735;50.136;11.062;2023-07-02T06:20:37;97520.00;;;19.20
7389;BMP180;3735;50.136;11.062;2023-07-02T06:23:03;97531.00;;;20.50
7389;BMP180;3735;50.136;11.062;2023-07-02T06:25:29;97530.00;;;20.40
7389;BMP180;3735;50.136;11.062;2023-07-02T06:27:55;97533.00;;;19.60
7389;BMP180;3735;50.136;11.062;2023-07-02T06:30:24;97533.00;;;19.20
7389;BMP180;3735;50.136;11.062;2023-07-02T06:32:50;97537.00;;;19.10
7389;BMP180;3735;50.136;11.062;2023-07-02T06:35:16;97532.00;;;19.10
7389;BMP180;3735;50.136;11.062;2023-07-02T06:37:43;97533.00;;;19.20
7389;BMP180;3735;50.136;11.062;2023-07-02T06:40:09;97542.00;;;18.90
7389;BMP180;3735;50.136;11.062;2023-07-02T06:42:35;97546.00;;;18.70
7389;BMP180;3735;50.136;11.062;2023-07-02T06:45:05;97542.00;;;18.50
7389;BMP180;3735;50.136;11.062;2023-07-02T06:47:31;97557.00;;;18.40
7389;BMP180;3735;50.136;11.062;2023-07-02T06:49:57;97559.00;;;18.00
7389;BMP180;3735;50.136;11.062;2023-07-02T06:52:23;97559.00;;;17.80
7389;BMP180;3735;50.136;11.062;2023-07-02T06:54:49;97559.00;;;17.80
7389;BMP180;3735;50.136;11.062;2023-07-02T06:57:15;97564.00;;;18.00
7389;BMP180;3735;50.136;11.062;2023-07-02T06:59:41;97559.00;;;18.10
7389;BMP180;3735;50.136;11.062;2023-07-02T07:02:07;97556.00;;;18.50
7389;BMP180;3735;50.136;11.062;2023-07-02T07:04:32;97555.00;;;19.70
7389;BMP180;3735;50.136;11.062;2023-07-02T07:07:03;97541.00;;;20.70
7389;BMP180;3735;50.136;11.062;2023-07-02T07:09:32;97545.00;;;21.50
7389;BMP180;3735;50.136;11.062;2023-07-02T07:11:58;97540.00;;;21.50
7389;BMP180;3735;50.136;11.062;2023-07-02T07:14:23;97544.00;;;21.10
7389;BMP180;3735;50.136;11.062;2023-07-02T07:16:50;97533.00;;;22.30
7389;BMP180;3735;50.136;11.062;2023-07-02T07:19:16;97530.00;;;23.10
7389;BMP180;3735;50.136;11.062;2023-07-02T07:21:42;97517.00;;;24.30
7389;BMP180;3735;50.136;11.062;2023-07-02T07:24:09;97529.00;;;24.40
7389;BMP180;3735;50.136;11.062;2023-07-02T07:26:35;97516.00;;;24.90
7389;BMP180;3735;50.136;11.062;2023-07-02T07:29:00;97513.00;;;24.80
7389;BMP180;3735;50.136;11.062;2023-07-02T07:31:26;97522.00;;;25.70
7389;BMP180;3735;50.136;11.062;2023-07-02T07:33:52;97525.00;;;25.40
7389;BMP180;3735;50.136;11.062;2023-07-02T07:36:17;97531.00;;;25.90
7389;BMP180;3735;50.136;11.062;2023-07-02T07:38:44;97534.00;;;25.50
7389;BMP180;3735;50.136;11.062;2023-07-02T07:41:09;97518.00;;;26.50
7389;BMP180;3735;50.136;11.062;2023-07-02T07:43:35;97531.00;;;27.00
7389;BMP180;3735;50.136;11.062;2023-07-02T07:46:01;97550.00;;;25.10
7389;BMP180;3735;50.136;11.062;2023-07-02T07:48:27;97558.00;;;24.50
7389;BMP180;3735;50.136;11.062;2023-07-02T07:50:53;97550.00;;;23.90
7389;BMP180;3735;50.136;11.062;2023-07-02T07:53:18;97555.00;;;24.10
7389;BMP180;3735;50.136;11.062;2023-07-02T07:55:44;97543.00;;;25.10
7389;BMP180;3735;50.136;11.062;2023-07-02T07:58:10;97543.00;;;25.80
7389;BMP180;3735;50.136;11.062;2023-07-02T08:00:36;97537.00;;;26.80
7389;BMP180;3735;50.136;11.062;2023-07-02T08:03:03;97553.00;;;25.90
7389;BMP180;3735;50.136;11.062;2023-07-02T08:05:30;97566.00;;;23.60
7389;BMP180;3735;50.136;11.062;2023-07-02T08:07:56;97564.00;;;23.10
7389;BMP180;3735;50.136;11.062;2023-07-02T08:10:22;97569.00;;;23.80
7389;BMP180;3735;50.136;11.062;2023-07-02T08:12:49;97564.00;;;24.70
7389;BMP180;3735;50.136;11.062;2023-07-02T08:15:18;97554.00;;;25.40
7389;BMP180;3735;50.136;11.062;2023-07-02T08:17:44;97565.00;;;26.30
7389;BMP180;3735;50.136;11.062;2023-07-02T08:20:10;97579.00;;;27.60
7389;BMP180;3735;50.136;11.062;2023-07-02T08:22:38;97571.00;;;26.90
7389;BMP180;3735;50.136;11.062;2023-07-02T08:25:05;97564.00;;;24.70
7389;BMP180;3735;50.136;11.062;2023-07-02T08:27:31;97584.00;;;24.30
7389;BMP180;3735;50.136;11.062;2023-07-02T08:29:57;97578.00;;;24.40
7389;BMP180;3735;50.136;11.062;2023-07-02T08:32:23;97580.00;;;24.40
7389;BMP180;3735;50.136;11.062;2023-07-02T08:34:49;97572.00;;;26.30
7389;BMP180;3735;50.136;11.062;2023-07-02T08:37:17;97580.00;;;25.80
7389;BMP180;3735;50.136;11.062;2023-07-02T08:39:43;97583.00;;;26.30
7389;BMP180;3735;50.136;11.062;2023-07-02T08:42:08;97577.00;;;27.80
7389;BMP180;3735;50.136;11.062;2023-07-02T08:44:35;97576.00;;;27.70
7389;BMP180;3735;50.136;11.062;2023-07-02T08:47:05;97590.00;;;29.00
7389;BMP180;3735;50.136;11.062;2023-07-02T08:49:31;97585.00;;;28.20
7389;BMP180;3735;50.136;11.062;2023-07-02T08:51:58;97584.00;;;26.40
7389;BMP180;3735;50.136;11.062;2023-07-02T08:54:24;97584.00;;;25.50
7389;BMP180;3735;50.136;11.062;2023-07-02T08:56:49;97603.00;;;24.40
7389;BMP180;3735;50.136;11.062;2023-07-02T08:59:15;97606.00;;;23.60
7389;BMP180;3735;50.136;11.062;2023-07-02T09:01:53;97603.00;;;23.90
7389;BMP180;3735;50.136;11.062;2023-07-02T09:04:24;97598.00;;;24.20
7389;BMP180;3735;50.136;11.062;2023-07-02T09:07:03;97599.00;;;25.00
7389;BMP180;3735;50.136;11.062;2023-07-02T09:09:30;97609.00;;;25.40
7389;BMP180;3735;50.136;11.062;2023-07-02T09:11:56;97612.00;;;25.00
7389;BMP180;3735;50.136;11.062;2023-07-02T09:14:30;97611.00;;;24.40
7389;BMP180;3735;50.136;11.062;2023-07-02T09:17:07;97601.00;;;23.20
7389;BMP180;3735;50.136;11.062;2023-07-02T09:19:49;97602.00;;;24.30
7389;BMP180;3735;50.136;11.062;2023-07-02T09:22:15;97606.00;;;26.70
7389;BMP180;3735;50.136;11.062;2023-07-02T09:24:41;97595.00;;;28.90
7389;BMP180;3735;50.136;11.062;2023-07-02T09:27:07;97602.00;;;29.00
7389;BMP180;3735;50.136;11.062;2023-07-02T09:29:34;97612.00;;;27.80
7389;BMP180;3735;50.136;11.062;2023-07-02T09:32:03;97610.00;;;26.70
7389;BMP180;3735;50.136;11.062;2023-07-02T09:34:31;97619.00;;;25.10
7389;BMP180;3735;50.136;11.062;2023-07-02T09:36:59;97625.00;;;24.30
7389;BMP180;3735;50.136;11.062;2023-07-02T09:39:31;97624.00;;;23.70
7389;BMP180;3735;50.136;11.062;2023-07-02T09:42:00;97619.00;;;24.40
7389;BMP180;3735;50.136;11.062;2023-07-02T09:44:31;97617.00;;;24.40
7389;BMP180;3735;50.136;11.062;2023-07-02T09:47:08;97618.00;;;25.50
7389;BMP180;3735;50.136;11.062;2023-07-02T09:49:41;97612.00;;;25.80
7389;BMP180;3735;50.136;11.062;2023-07-02T09:52:11;97611.00;;;27.80
7389;BMP180;3735;50.136;11.062;2023-07-02T09:54:38;97615.00;;;28.00
7389;BMP180;3735;50.136;11.062;2023-07-02T09:57:08;97613.00;;;28.10
7389;BMP180;3735;50.136;11.062;2023-07-02T09:59:34;97609.00;;;28.00
7389;BMP180;3735;50.136;11.062;2023-07-02T10:02:00;97615.00;;;26.80
7389;BMP180;3735;50.136;11.062;2023-07-02T10:04:26;97603.00;;;27.20
7389;BMP180;3735;50.136;11.062;2023-07-02T10:06:54;97613.00;;;26.90
7389;BMP180;3735;50.136;11.062;2023-07-02T10:09:35;97612.00;;;26.60
7389;BMP180;3735;50.136;11.062;2023-07-02T10:12:01;97616.00;;;25.10
7389;BMP180;3735;50.136;11.062;2023-07-02T10:14:26;97625.00;;;24.30
7389;BMP180;3735;50.136;11.062;2023-07-02T10:16:54;97621.00;;;23.90
7389;BMP180;3735;50.136;11.062;2023-07-02T10:19:20;97624.00;;;23.70
7389;BMP180;3735;50.136;11.062;2023-07-02T10:21:47;97635.00;;;23.50
7389;BMP180;3735;50.136;11.062;2023-07-02T10:24:25;97618.00;;;23.30
7389;BMP180;3735;50.136;11.062;2023-07-02T10:26:54;97625.00;;;23.10
7389;BMP180;3735;50.136;11.062;2023-07-02T10:29:23;97635.00;;;23.00
7389;BMP180;3735;50.136;11.062;2023-07-02T10:31:55;97634.00;;;22.80
7389;BMP180;3735;50.136;11.062;2023-07-02T10:34:35;97641.00;;;23.30
7389;BMP180;3735;50.136;11.062;2023-07-02T10:37:02;97623.00;;;23.70
7389;BMP180;3735;50.136;11.062;2023-07-02T10:39:30;97629.00;;;25.10
7389;BMP180;3735;50.136;11.062;2023-07-02T10:42:09;97624.00;;;24.90
7389;BMP180;3735;50.136;11.062;2023-07-02T10:44:50;97628.00;;;24.90
7389;BMP180;3735;50.136;11.062;2023-07-02T10:47:16;97623.00;;;25.50
7389;BMP180;3735;50.136;11.062;2023-07-02T10:49:42;97618.00;;;26.20
7389;BMP180;3735;50.136;11.062;2023-07-02T10:52:07;97625.00;;;27.50
7389;BMP180;3735;50.136;11.062;2023-07-02T10:54:41;97624.00;;;26.30
7389;BMP180;3735;50.136;11.062;2023-07-02T10:57:09;97629.00;;;25.50
7389;BMP180;3735;50.136;11.062;2023-07-02T10:59:35;97638.00;;;25.50
7389;BMP180;3735;50.136;11.062;2023-07-02T11:02:01;97636.00;;;25.20
7389;BMP180;3735;50.136;11.062;2023-07-02T11:04:30;97635.00;;;25.00
7389;BMP180;3735;50.136;11.062;2023-07-02T11:06:57;97631.00;;;25.30
7389;BMP180;3735;50.136;11.062;2023-07-02T11:09:23;97635.00;;;25.80
7389;BMP180;3735;50.136;11.062;2023-07-02T11:12:00;97645.00;;;25.90
7389;BMP180;3735;50.136;11.062;2023-07-02T11:14:35;97639.00;;;26.00
7389;BMP180;3735;50.136;11.062;2023-07-02T11:17:06;97638.00;;;25.90
7389;BMP180;3735;50.136;11.062;2023-07-02T11:19:36;97644.00;;;25.10
7389;BMP180;3735;50.136;11.062;2023-07-02T11:22:01;97646.00;;;25.00
7389;BMP180;3735;50.136;11.062;2023-07-02T11:26:55;97646.00;;;25.10
7389;BMP180;3735;50.136;11.062;2023-07-02T11:29:22;97640.00;;;24.80
7389;BMP180;3735;50.136;11.062;2023-07-02T11:31:48;97659.00;;;24.40
7389;BMP180;3735;50.136;11.062;2023-07-02T11:34:23;97661.00;;;24.20
7389;BMP180;3735;50.136;11.062;2023-07-02T11:36:50;97652.00;;;24.70
7389;BMP180;3735;50.136;11.062;2023-07-02T11:39:16;97653.00;;;25.70
7389;BMP180;3735;50.136;11.062;2023-07-02T11:41:44;97643.00;;;26.40
7389;BMP180;3735;50.136;11.062;2023-07-02T11:44:11;97648.00;;;26.30
7389;BMP180;3735;50.136;11.062;2023-07-02T11:46:37;97638.00;;;24.80
7389;BMP180;3735;50.136;11.062;2023-07-02T11:49:04;97637.00;;;24.80
7389;BMP180;3735;50.136;11.062;2023-07-02T11:51:34;97650.00;;;24.30
7389;BMP180;3735;50.136;11.062;2023-07-02T11:54:00;97649.00;;;24.50
7389;BMP180;3735;50.136;11.062;2023-07-02T11:56:26;97655.00;;;24.60
7389;BMP180;3735;50.136;11.062;2023-07-02T11:58:52;97651.00;;;25.20
7389;BMP180;3735;50.136;11.062;2023-07-02T12:01:17;97658.00;;;26.10
7389;BMP180;3735;50.136;11.062;2023-07-02T12:03:44;97665.00;;;25.90
7389;BMP180;3735;50.136;11.062;2023-07-02T12:06:11;97653.00;;;25.80
7389;BMP180;3735;50.136;11.062;2023-07-02T12:08:36;97662.00;;;25.90
7389;BMP180;3735;50.136;11.062;2023-07-02T12:11:02;97661.00;;;25.20
7389;BMP180;3735;50.136;11.062;2023-07-02T12:13:28;97661.00;;;24.60
7389;BMP180;3735;50.136;11.062;2023-07-02T12:15:53;97655.00;;;25.00
7389;BMP180;3735;50.136;11.062;2023-07-02T12:18:19;97649.00;;;26.60
7389;BMP180;3735;50.136;11.062;2023-07-02T12:20:45;97649.00;;;26.40
7389;BMP180;3735;50.136;11.062;2023-07-02T12:23:11;97656.00;;;26.40
7389;BMP180;3735;50.136;11.062;2023-07-02T12:25:37;97648.00;;;26.20
7389;BMP180;3735;50.136;11.062;2023-07-02T12:28:04;97649.00;;;25.70
7389;BMP180;3735;50.136;11.062;2023-07-02T12:30:31;97644.00;;;24.80
7389;BMP180;3735;50.136;11.062;2023-07-02T12:32:57;97652.00;;;25.70
7389;BMP180;3735;50.136;11.062;2023-07-02T12:35:25;97647.00;;;26.20
7389;BMP180;3735;50.136;11.062;2023-07-02T12:37:53;97656.00;;;26.00
7389;BMP180;3735;50.136;11.062;2023-07-02T12:40:20;97655.00;;;25.70
7389;BMP180;3735;50.136;11.062;2023-07-02T12:42:47;97652.00;;;25.60
7389;BMP180;3735;50.136;11.062;2023-07-02T12:45:15;97651.00;;;25.20
7389;BMP180;3735;50.136;11.062;2023-07-02T12:47:42;97658.00;;;26.10
7389;BMP180;3735;50.136;11.062;2023-07-02T12:50:09;97644.00;;;26.30
7389;BMP180;3735;50.136;11.062;2023-07-02T12:52:35;97643.00;;;26.10
7389;BMP180;3735;50.136;11.062;2023-07-02T12:55:01;97652.00;;;27.20
7389;BMP180;3735;50.136;11.062;2023-07-02T12:57:28;97648.00;;;28.10
7389;BMP180;3735;50.136;11.062;2023-07-02T12:59:55;97641.00;;;28.40
7389;BMP180;3735;50.136;11.062;2023-07-02T13:02:24;97637.00;;;28.20
7389;BMP180;3735;50.136;11.062;2023-07-02T13:04:50;97645.00;;;28.70
7389;BMP180;3735;50.136;11.062;2023-07-02T13:07:17;97641.00;;;28.00
7389;BMP180;3735;50.136;11.062;2023-07-02T13:09:43;97647.00;;;26.80
7389;BMP180;3735;50.136;11.062;2023-07-02T13:12:10;97644.00;;;26.70
7389;BMP180;3735;50.136;11.062;2023-07-02T13:14:36;97639.00;;;26.40
7389;BMP180;3735;50.136;11.062;2023-07-02T13:17:02;97646.00;;;27.20
7389;BMP180;3735;50.136;11.062;2023-07-02T13:19:31;97646.00;;;26.30
7389;BMP180;3735;50.136;11.062;2023-07-02T13:21:57;97644.00;;;25.90
7389;BMP180;3735;50.136;11.062;2023-07-02T13:24:23;97640.00;;;25.80
7389;BMP180;3735;50.136;11.062;2023-07-02T13:26:49;97645.00;;;25.70
7389;BMP180;3735;50.136;11.062;2023-07-02T13:29:15;97643.00;;;25.00
7389;BMP180;3735;50.136;11.062;2023-07-02T13:31:42;97644.00;;;25.00
7389;BMP180;3735;50.136;11.062;2023-07-02T13:34:08;97650.00;;;24.60
7389;BMP180;3735;50.136;11.062;2023-07-02T13:36:33;97649.00;;;24.70
7389;BMP180;3735;50.136;11.062;2023-07-02T13:38:59;97646.00;;;24.50
7389;BMP180;3735;50.136;11.062;2023-07-02T13:41:26;97645.00;;;24.60
7389;BMP180;3735;50.136;11.062;2023-07-02T13:43:52;97651.00;;;25.30
7389;BMP180;3735;50.136;11.062;2023-07-02T13:46:17;97641.00;;;26.10
7389;BMP180;3735;50.136;11.062;2023-07-02T13:48:43;97650.00;;;26.30
7389;BMP180;3735;50.136;11.062;2023-07-02T13:51:09;97649.00;;;26.10
7389;BMP180;3735;50.136;11.062;2023-07-02T13:53:35;97644.00;;;26.40
7389;BMP180;3735;50.136;11.062;2023-07-02T13:56:01;97643.00;;;26.10
7389;BMP180;3735;50.136;11.062;2023-07-02T14:01:10;97642.00;;;26.40
7389;BMP180;3735;50.136;11.062;2023-07-02T14:03:36;97639.00;;;26.70
7389;BMP180;3735;50.136;11.062;2023-07-02T14:06:02;97642.00;;;26.90
7389;BMP180;3735;50.136;11.062;2023-07-02T14:08:27;97643.00;;;26.20
7389;BMP180;3735;50.136;11.062;2023-07-02T14:10:53;97642.00;;;26.70
7389;BMP180;3735;50.136;11.062;2023-07-02T14:13:19;97640.00;;;27.90
7389;BMP180;3735;50.136;11.062;2023-07-02T14:15:44;97642.00;;;27.90
7389;BMP180;3735;50.136;11.062;2023-07-02T14:18:10;97653.00;;;27.50
7389;BMP180;3735;50.136;11.062;2023-07-02T14:20:36;97648.00;;;27.30
7389;BMP180;3735;50.136;11.062;2023-07-02T14:23:02;97650.00;;;27.20
7389;BMP180;3735;50.136;11.062;2023-07-02T14:25:27;97646.00;;;26.10
7389;BMP180;3735;50.136;11.062;2023-07-02T14:27:53;97650.00;;;25.60
7389;BMP180;3735;50.136;11.062;2023-07-02T14:30:19;97647.00;;;25.60